sensor_id;sensor_type;location;lat;lon;timestamp;pressure;altitude;pressure_sealevel;temperature;humidity
70323;BME280;57735;56.264;43.898;2023-04-06T00:00:44;101304.59;;;6.34;58.52
70323;BME280;57735;56.264;43.898;2023-04-06T00:03:15;101314.53;;;6.30;58.79
70323;BME280;57735;56.264;43.898;2023-04-06T00:05:46;101307.56;;;6.29;58.51
70323;BME280;57735;56.264;43.898;2023-04-06T00:08:17;101307.75;;;6.26;58.42
70323;BME280;57735;56.264;43.898;2023-04-06T00:10:50;101320.34;;;6.23;58.56
70323;BME280;57735;56.264;43.898;2023-04-06T00:13:21;101313.44;;;6.20;58.39
70323;BME280;57735;56.264;43.898;2023-04-06T00:15:54;101324.28;;;6.17;58.73
70323;BME280;57735;56.264;43.898;2023-04-06T00:18:24;101322.66;;;6.15;58.56
70323;BME280;57735;56.264;43.898;2023-04-06T00:20:55;101318.31;;;6.14;58.62
70323;BME280;57735;56.264;43.898;2023-04-06T00:23:25;101321.06;;;6.12;58.68
70323;BME280;57735;56.264;43.898;2023-04-06T00:25:56;101330.81;;;6.12;58.60
70323;BME280;57735;56.264;43.898;2023-04-06T00:28:26;101331.09;;;6.07;58.77
70323;BME280;57735;56.264;43.898;2023-04-06T00:30:58;101328.66;;;6.04;58.71
70323;BME280;57735;56.264;43.898;2023-04-06T00:33:29;101335.13;;;6.00;58.91
70323;BME280;57735;56.264;43.898;2023-04-06T00:35:59;101329.94;;;5.99;58.92
70323;BME280;57735;56.264;43.898;2023-04-06T00:38:30;101332.88;;;5.94;58.93
70323;BME280;57735;56.264;43.898;2023-04-06T00:41:02;101330.41;;;5.91;58.83
70323;BME280;57735;56.264;43.898;2023-04-06T00:43:33;101335.88;;;5.88;58.83
70323;BME280;57735;56.264;43.898;2023-04-06T00:46:04;101349.22;;;5.86;58.91
70323;BME280;57735;56.264;43.898;2023-04-06T00:48:35;101339.59;;;5.85;59.08
70323;BME280;57735;56.264;43.898;2023-04-06T00:51:06;101338.94;;;5.82;59.00
70323;BME280;57735;56.264;43.898;2023-04-06T00:53:36;101334.69;;;5.79;59.15
70323;BME280;57735;56.264;43.898;2023-04-06T00:56:07;101341.03;;;5.77;59.19
70323;BME280;57735;56.264;43.898;2023-04-06T00:58:40;101344.72;;;5.74;59.34
70323;BME280;57735;56.264;43.898;2023-04-06T01:01:10;101351.13;;;5.70;59.29
70323;BME280;57735;56.264;43.898;2023-04-06T01:03:41;101355.81;;;5.67;59.42
70323;BME280;57735;56.264;43.898;2023-04-06T01:06:12;101346.25;;;5.64;59.56
70323;BME280;57735;56.264;43.898;2023-04-06T01:08:43;101348.16;;;5.62;59.52
70323;BME280;57735;56.264;43.898;2023-04-06T01:11:13;101354.38;;;5.61;59.53
70323;BME280;57735;56.264;43.898;2023-04-06T01:13:44;101351.94;;;5.58;59.42
70323;BME280;57735;56.264;43.898;2023-04-06T01:16:14;101351.28;;;5.54;59.51
70323;BME280;57735;56.264;43.898;2023-04-06T01:18:48;101354.13;;;5.51;59.65
70323;BME280;57735;56.264;43.898;2023-04-06T01:21:19;101356.97;;;5.48;59.74
70323;BME280;57735;56.264;43.898;2023-04-06T01:23:49;101355.47;;;5.44;59.95
70323;BME280;57735;56.264;43.898;2023-04-06T01:26:20;101352.91;;;5.43;59.93
70323;BME280;57735;56.264;43.898;2023-04-06T01:28:51;101355.75;;;5.40;59.80
70323;BME280;57735;56.264;43.898;2023-04-06T01:31:24;101353.19;;;5.38;59.96
70323;BME280;57735;56.264;43.898;2023-04-06T01:33:55;101347.19;;;5.36;60.26
70323;BME280;57735;56.264;43.898;2023-04-06T01:36:26;101359.81;;;5.31;60.29
70323;BME280;57735;56.264;43.898;2023-04-06T01:38:57;101350.28;;;5.29;60.32
70323;BME280;57735;56.264;43.898;2023-04-06T01:41:29;101366.31;;;5.25;60.43
70323;BME280;57735;56.264;43.898;2023-04-06T01:44:00;101354.25;;;5.21;60.48
70323;BME280;57735;56.264;43.898;2023-04-06T01:46:31;101364.81;;;5.21;60.67
70323;BME280;57735;56.264;43.898;2023-04-06T01:49:02;101364.09;;;5.19;60.64
70323;BME280;57735;56.264;43.898;2023-04-06T01:51:32;101365.97;;;5.17;60.59
70323;BME280;57735;56.264;43.898;2023-04-06T01:54:03;101367.09;;;5.13;61.05
70323;BME280;57735;56.264;43.898;2023-04-06T01:56:33;101373.41;;;5.11;60.87
70323;BME280;57735;56.264;43.898;2023-04-06T01:59:04;101376.16;;;5.09;60.97
70323;BME280;57735;56.264;43.898;2023-04-06T02:01:34;101382.56;;;5.05;61.02
70323;BME280;57735;56.264;43.898;2023-04-06T02:04:07;101380.22;;;5.01;61.06
70323;BME280;57735;56.264;43.898;2023-04-06T02:06:40;101387.47;;;4.97;61.27
70323;BME280;57735;56.264;43.898;2023-04-06T02:09:11;101385.78;;;4.96;61.17
70323;BME280;57735;56.264;43.898;2023-04-06T02:11:42;101386.81;;;4.94;61.46
70323;BME280;57735;56.264;43.898;2023-04-06T02:14:12;101393.13;;;4.91;61.60
70323;BME280;57735;56.264;43.898;2023-04-06T02:16:43;101399.25;;;4.91;61.58
70323;BME280;57735;56.264;43.898;2023-04-06T02:19:13;101397.47;;;4.92;61.42
70323;BME280;57735;56.264;43.898;2023-04-06T02:21:44;101407.28;;;4.90;61.56
70323;BME280;57735;56.264;43.898;2023-04-06T02:24:14;101411.88;;;4.86;61.83
70323;BME280;57735;56.264;43.898;2023-04-06T02:26:45;101410.38;;;4.82;61.75
70323;BME280;57735;56.264;43.898;2023-04-06T02:29:15;101414.16;;;4.78;61.91
70323;BME280;57735;56.264;43.898;2023-04-06T02:31:46;101417.72;;;4.77;61.92
70323;BME280;57735;56.264;43.898;2023-04-06T02:34:17;101423.19;;;4.74;62.00
70323;BME280;57735;56.264;43.898;2023-04-06T02:36:54;101420.81;;;4.70;62.12
70323;BME280;57735;56.264;43.898;2023-04-06T02:39:25;101428.72;;;4.70;62.25
70323;BME280;57735;56.264;43.898;2023-04-06T02:41:55;101422.88;;;4.65;62.44
70323;BME280;57735;56.264;43.898;2023-04-06T02:44:27;101426.22;;;4.68;62.27
70323;BME280;57735;56.264;43.898;2023-04-06T02:46:59;101418.16;;;4.70;62.42
70323;BME280;57735;56.264;43.898;2023-04-06T02:49:30;101424.22;;;4.72;62.32
70323;BME280;57735;56.264;43.898;2023-04-06T02:52:01;101432.81;;;4.75;62.27
70323;BME280;57735;56.264;43.898;2023-04-06T02:54:32;101439.72;;;4.78;62.13
70323;BME280;57735;56.264;43.898;2023-04-06T02:57:02;101430.00;;;4.78;62.26
70323;BME280;57735;56.264;43.898;2023-04-06T02:59:35;101438.00;;;4.77;62.30
70323;BME280;57735;56.264;43.898;2023-04-06T03:02:06;101437.91;;;4.78;62.43
70323;BME280;57735;56.264;43.898;2023-04-06T03:04:38;101438.69;;;4.80;62.10
70323;BME280;57735;56.264;43.898;2023-04-06T03:07:09;101444.06;;;4.79;62.33
70323;BME280;57735;56.264;43.898;2023-04-06T03:09:41;101449.34;;;4.79;62.29
70323;BME280;57735;56.264;43.898;2023-04-06T03:12:12;101445.94;;;4.77;62.24
70323;BME280;57735;56.264;43.898;2023-04-06T03:14:42;101446.78;;;4.77;62.21
70323;BME280;57735;56.264;43.898;2023-04-06T03:17:13;101443.63;;;4.71;62.35
70323;BME280;57735;56.264;43.898;2023-04-06T03:19:46;101441.94;;;4.70;62.46
70323;BME280;57735;56.264;43.898;2023-04-06T03:22:16;101444.50;;;4.71;62.38
70323;BME280;57735;56.264;43.898;2023-04-06T03:24:47;101442.78;;;4.70;62.53
70323;BME280;57735;56.264;43.898;2023-04-06T03:27:17;101444.50;;;4.71;62.55
70323;BME280;57735;56.264;43.898;2023-04-06T03:29:48;101448.75;;;4.74;62.33
70323;BME280;57735;56.264;43.898;2023-04-06T03:32:18;101453.84;;;4.77;62.34
70323;BME280;57735;56.264;43.898;2023-04-06T03:34:49;101458.28;;;4.76;62.42
70323;BME280;57735;56.264;43.898;2023-04-06T03:37:19;101451.88;;;4.80;62.25
70323;BME280;57735;56.264;43.898;2023-04-06T03:39:51;101452.66;;;4.82;62.11
70323;BME280;57735;56.264;43.898;2023-04-06T03:42:22;101462.19;;;4.85;61.97
70323;BME280;57735;56.264;43.898;2023-04-06T03:44:52;101456.69;;;4.88;62.01
70323;BME280;57735;56.264;43.898;2023-04-06T03:47:23;101454.16;;;4.86;61.81
70323;BME280;57735;56.264;43.898;2023-04-06T03:49:54;101461.22;;;4.86;62.11
70323;BME280;57735;56.264;43.898;2023-04-06T03:52:25;101459.44;;;4.86;61.87
70323;BME280;57735;56.264;43.898;2023-04-06T03:54:56;101458.22;;;4.92;61.72
70323;BME280;57735;56.264;43.898;2023-04-06T03:57:27;101463.84;;;5.02;61.83
70323;BME280;57735;56.264;43.898;2023-04-06T03:59:57;101462.41;;;5.10;61.14
70323;BME280;57735;56.264;43.898;2023-04-06T04:02:28;101463.28;;;5.11;61.02
70323;BME280;57735;56.264;43.898;2023-04-06T04:04:58;101467.63;;;5.12;61.00
70323;BME280;57735;56.264;43.898;2023-04-06T04:07:29;101462.25;;;5.13;60.82
70323;BME280;57735;56.264;43.898;2023-04-06T04:10:00;101471.69;;;5.17;60.69
70323;BME280;57735;56.264;43.898;2023-04-06T04:12:31;101469.81;;;5.19;60.53
70323;BME280;57735;56.264;43.898;2023-04-06T04:15:01;101471.13;;;5.26;60.37
70323;BME280;57735;56.264;43.898;2023-04-06T04:17:33;101474.34;;;5.32;60.03
70323;BME280;57735;56.264;43.898;2023-04-06T04:20:03;101480.09;;;5.38;59.68
70323;BME280;57735;56.264;43.898;2023-04-06T04:22:34;101485.28;;;5.40;59.50
70323;BME280;57735;56.264;43.898;2023-04-06T04:25:05;101484.25;;;5.42;59.50
70323;BME280;57735;56.264;43.898;2023-04-06T04:27:35;101493.03;;;5.43;59.05
70323;BME280;57735;56.264;43.898;2023-04-06T04:30:06;101480.69;;;5.43;59.12
70323;BME280;57735;56.264;43.898;2023-04-06T04:32:37;101476.06;;;5.47;58.86
70323;BME280;57735;56.264;43.898;2023-04-06T04:35:07;101488.34;;;5.48;58.89
70323;BME280;57735;56.264;43.898;2023-04-06T04:37:38;101488.16;;;5.51;58.43
70323;BME280;57735;56.264;43.898;2023-04-06T04:40:09;101487.94;;;5.54;58.28
70323;BME280;57735;56.264;43.898;2023-04-06T04:42:40;101488.34;;;5.62;58.15
70323;BME280;57735;56.264;43.898;2023-04-06T04:45:10;101493.63;;;5.62;57.89
70323;BME280;57735;56.264;43.898;2023-04-06T04:47:41;101495.31;;;5.63;57.98
70323;BME280;57735;56.264;43.898;2023-04-06T04:50:12;101485.50;;;5.65;57.90
70323;BME280;57735;56.264;43.898;2023-04-06T04:52:42;101488.91;;;5.67;57.80
70323;BME280;57735;56.264;43.898;2023-04-06T04:55:13;101492.19;;;5.71;57.32
70323;BME280;57735;56.264;43.898;2023-04-06T04:57:49;101497.97;;;5.77;57.34
70323;BME280;57735;56.264;43.898;2023-04-06T05:00:20;101494.75;;;5.86;57.18
70323;BME280;57735;56.264;43.898;2023-04-06T05:02:51;101497.78;;;5.94;56.63
70323;BME280;57735;56.264;43.898;2023-04-06T05:05:21;101497.50;;;5.99;56.33
70323;BME280;57735;56.264;43.898;2023-04-06T05:07:52;101506.31;;;6.00;56.19
70323;BME280;57735;56.264;43.898;2023-04-06T05:10:27;101501.94;;;5.99;56.15
70323;BME280;57735;56.264;43.898;2023-04-06T05:12:57;101508.00;;;6.01;55.91
70323;BME280;57735;56.264;43.898;2023-04-06T05:15:28;101510.66;;;6.01;55.73
70323;BME280;57735;56.264;43.898;2023-04-06T05:17:59;101511.41;;;6.03;56.09
70323;BME280;57735;56.264;43.898;2023-04-06T05:20:30;101518.19;;;6.07;55.71
70323;BME280;57735;56.264;43.898;2023-04-06T05:23:00;101507.22;;;6.13;55.86
70323;BME280;57735;56.264;43.898;2023-04-06T05:25:31;101507.47;;;6.22;55.31
70323;BME280;57735;56.264;43.898;2023-04-06T05:28:02;101512.19;;;6.32;55.06
70323;BME280;57735;56.264;43.898;2023-04-06T05:30:32;101509.97;;;6.38;54.68
70323;BME280;57735;56.264;43.898;2023-04-06T05:33:03;101509.03;;;6.39;54.50
70323;BME280;57735;56.264;43.898;2023-04-06T05:35:34;101506.19;;;6.42;54.81
70323;BME280;57735;56.264;43.898;2023-04-06T05:38:07;101520.00;;;6.47;54.50
70323;BME280;57735;56.264;43.898;2023-04-06T05:40:37;101509.72;;;6.55;54.25
70323;BME280;57735;56.264;43.898;2023-04-06T05:43:10;101510.19;;;6.62;53.92
70323;BME280;57735;56.264;43.898;2023-04-06T05:45:43;101514.03;;;6.71;54.16
70323;BME280;57735;56.264;43.898;2023-04-06T05:48:16;101512.59;;;6.79;53.81
70323;BME280;57735;56.264;43.898;2023-04-06T05:50:50;101521.84;;;6.86;53.56
70323;BME280;57735;56.264;43.898;2023-04-06T05:53:23;101521.13;;;6.97;53.51
70323;BME280;57735;56.264;43.898;2023-04-06T05:55:56;101521.13;;;7.10;52.98
70323;BME280;57735;56.264;43.898;2023-04-06T05:58:26;101521.03;;;7.11;52.80
70323;BME280;57735;56.264;43.898;2023-04-06T06:00:57;101523.47;;;7.14;52.84
70323;BME280;57735;56.264;43.898;2023-04-06T06:03:30;101524.88;;;7.20;52.50
70323;BME280;57735;56.264;43.898;2023-04-06T06:06:01;101533.34;;;7.25;52.54
70323;BME280;57735;56.264;43.898;2023-04-06T06:08:32;101517.66;;;7.22;51.97
70323;BME280;57735;56.264;43.898;2023-04-06T06:11:03;101530.59;;;7.26;52.00
70323;BME280;57735;56.264;43.898;2023-04-06T06:13:33;101524.16;;;7.30;52.04
70323;BME280;57735;56.264;43.898;2023-04-06T06:16:04;101525.41;;;7.38;51.88
70323;BME280;57735;56.264;43.898;2023-04-06T06:18:35;101529.44;;;7.43;51.97
70323;BME280;57735;56.264;43.898;2023-04-06T06:21:07;101525.09;;;7.55;52.03
70323;BME280;57735;56.264;43.898;2023-04-06T06:23:38;101532.88;;;7.70;51.34
70323;BME280;57735;56.264;43.898;2023-04-06T06:26:08;101524.78;;;7.72;51.06
70323;BME280;57735;56.264;43.898;2023-04-06T06:28:41;101521.19;;;7.86;51.48
70323;BME280;57735;56.264;43.898;2023-04-06T06:31:12;101527.84;;;8.04;50.58
70323;BME280;57735;56.264;43.898;2023-04-06T06:33:42;101532.59;;;8.12;50.74
70323;BME280;57735;56.264;43.898;2023-04-06T06:36:13;101531.69;;;8.24;50.51
70323;BME280;57735;56.264;43.898;2023-04-06T06:38:44;101540.72;;;8.21;50.09
70323;BME280;57735;56.264;43.898;2023-04-06T06:41:15;101529.16;;;8.22;49.77
70323;BME280;57735;56.264;43.898;2023-04-06T06:43:45;101529.69;;;8.27;50.01
70323;BME280;57735;56.264;43.898;2023-04-06T06:46:16;101535.09;;;8.38;49.77
70323;BME280;57735;56.264;43.898;2023-04-06T06:48:47;101534.53;;;8.46;49.48
70323;BME280;57735;56.264;43.898;2023-04-06T06:51:17;101530.03;;;8.59;49.47
70323;BME280;57735;56.264;43.898;2023-04-06T06:53:48;101535.63;;;8.67;49.37
70323;BME280;57735;56.264;43.898;2023-04-06T06:56:18;101538.78;;;8.72;49.00
70323;BME280;57735;56.264;43.898;2023-04-06T06:58:49;101525.78;;;8.81;48.70
70323;BME280;57735;56.264;43.898;2023-04-06T07:01:19;101531.84;;;8.83;48.48
70323;BME280;57735;56.264;43.898;2023-04-06T07:03:50;101537.19;;;8.94;48.15
70323;BME280;57735;56.264;43.898;2023-04-06T07:06:21;101530.41;;;8.90;48.48
70323;BME280;57735;56.264;43.898;2023-04-06T07:08:51;101536.47;;;8.92;48.33
70323;BME280;57735;56.264;43.898;2023-04-06T07:11:22;101524.31;;;9.12;47.81
70323;BME280;57735;56.264;43.898;2023-04-06T07:13:52;101529.81;;;9.21;47.75
70323;BME280;57735;56.264;43.898;2023-04-06T07:16:23;101520.16;;;9.31;47.31
70323;BME280;57735;56.264;43.898;2023-04-06T07:18:53;101523.69;;;9.43;46.75
70323;BME280;57735;56.264;43.898;2023-04-06T07:21:24;101526.00;;;9.48;46.60
70323;BME280;57735;56.264;43.898;2023-04-06T07:23:54;101523.94;;;9.51;46.88
70323;BME280;57735;56.264;43.898;2023-04-06T07:26:25;101522.97;;;9.63;46.10
70323;BME280;57735;56.264;43.898;2023-04-06T07:28:55;101524.06;;;9.72;46.26
70323;BME280;57735;56.264;43.898;2023-04-06T07:31:26;101524.06;;;9.72;45.84
70323;BME280;57735;56.264;43.898;2023-04-06T07:33:57;101523.47;;;9.68;45.33
70323;BME280;57735;56.264;43.898;2023-04-06T07:36:28;101520.44;;;9.73;45.82
70323;BME280;57735;56.264;43.898;2023-04-06T07:38:59;101523.59;;;9.89;45.17
70323;BME280;57735;56.264;43.898;2023-04-06T07:41:34;101520.56;;;9.94;44.52
70323;BME280;57735;56.264;43.898;2023-04-06T07:44:04;101528.09;;;10.00;43.41
70323;BME280;57735;56.264;43.898;2023-04-06T07:46:35;101526.28;;;10.00;43.29
70323;BME280;57735;56.264;43.898;2023-04-06T07:49:06;101523.50;;;10.02;43.00
70323;BME280;57735;56.264;43.898;2023-04-06T07:51:38;101522.16;;;9.96;42.85
70323;BME280;57735;56.264;43.898;2023-04-06T07:54:09;101523.00;;;9.97;42.96
70323;BME280;57735;56.264;43.898;2023-04-06T07:56:40;101521.66;;;10.13;42.68
70323;BME280;57735;56.264;43.898;2023-04-06T07:59:11;101537.16;;;10.08;42.10
70323;BME280;57735;56.264;43.898;2023-04-06T08:01:42;101522.19;;;10.19;42.55
70323;BME280;57735;56.264;43.898;2023-04-06T08:04:12;101536.81;;;10.24;41.68
70323;BME280;57735;56.264;43.898;2023-04-06T08:06:43;101534.13;;;10.24;41.05
70323;BME280;57735;56.264;43.898;2023-04-06T08:09:13;101535.25;;;10.22;41.48
70323;BME280;57735;56.264;43.898;2023-04-06T08:11:44;101540.72;;;10.20;39.82
70323;BME280;57735;56.264;43.898;2023-04-06T08:14:16;101536.31;;;10.30;39.01
70323;BME280;57735;56.264;43.898;2023-04-06T08:16:49;101545.78;;;10.34;39.00
70323;BME280;57735;56.264;43.898;2023-04-06T08:19:19;101542.63;;;10.29;39.53
70323;BME280;57735;56.264;43.898;2023-04-06T08:21:53;101542.97;;;10.25;39.04
70323;BME280;57735;56.264;43.898;2023-04-06T08:24:23;101546.88;;;10.21;38.56
70323;BME280;57735;56.264;43.898;2023-04-06T08:26:54;101535.38;;;10.20;38.70
70323;BME280;57735;56.264;43.898;2023-04-06T08:29:24;101540.81;;;10.30;38.82
70323;BME280;57735;56.264;43.898;2023-04-06T08:31:55;101541.91;;;10.38;38.33
70323;BME280;57735;56.264;43.898;2023-04-06T08:34:28;101531.06;;;10.51;37.60
70323;BME280;57735;56.264;43.898;2023-04-06T08:36:58;101538.19;;;10.62;38.35
70323;BME280;57735;56.264;43.898;2023-04-06T08:39:29;101545.16;;;10.85;36.84
70323;BME280;57735;56.264;43.898;2023-04-06T08:42:01;101530.13;;;10.84;36.01
70323;BME280;57735;56.264;43.898;2023-04-06T08:44:33;101538.25;;;10.82;36.22
70323;BME280;57735;56.264;43.898;2023-04-06T08:47:04;101529.41;;;10.82;36.50
70323;BME280;57735;56.264;43.898;2023-04-06T08:49:35;101533.59;;;10.96;36.27
70323;BME280;57735;56.264;43.898;2023-04-06T08:52:07;101526.44;;;10.96;36.02
70323;BME280;57735;56.264;43.898;2023-04-06T08:54:41;101533.53;;;11.07;35.70
70323;BME280;57735;56.264;43.898;2023-04-06T08:57:11;101526.34;;;11.18;34.88
70323;BME280;57735;56.264;43.898;2023-04-06T08:59:45;101532.44;;;11.30;34.93
70323;BME280;57735;56.264;43.898;2023-04-06T09:02:17;101530.13;;;11.37;34.64
70323;BME280;57735;56.264;43.898;2023-04-06T09:04:49;101526.47;;;11.38;34.00
70323;BME280;57735;56.264;43.898;2023-04-06T09:07:22;101525.63;;;11.37;33.63
70323;BME280;57735;56.264;43.898;2023-04-06T09:09:54;101536.56;;;11.34;34.02
70323;BME280;57735;56.264;43.898;2023-04-06T09:12:28;101528.47;;;11.45;33.71
70323;BME280;57735;56.264;43.898;2023-04-06T09:15:02;101531.72;;;11.49;33.01
70323;BME280;57735;56.264;43.898;2023-04-06T09:17:33;101535.97;;;11.51;32.81
70323;BME280;57735;56.264;43.898;2023-04-06T09:20:04;101526.44;;;11.59;32.37
70323;BME280;57735;56.264;43.898;2023-04-06T09:22:35;101520.25;;;11.58;32.07
70323;BME280;57735;56.264;43.898;2023-04-06T09:25:07;101520.56;;;11.65;31.71
70323;BME280;57735;56.264;43.898;2023-04-06T09:27:38;101522.06;;;11.78;31.71
70323;BME280;57735;56.264;43.898;2023-04-06T09:30:09;101522.66;;;11.82;31.59
70323;BME280;57735;56.264;43.898;2023-04-06T09:32:50;101523.63;;;11.81;31.25
70323;BME280;57735;56.264;43.898;2023-04-06T09:35:21;101525.34;;;11.82;30.93
70323;BME280;57735;56.264;43.898;2023-04-06T09:37:52;101519.41;;;11.78;30.39
70323;BME280;57735;56.264;43.898;2023-04-06T09:40:23;101501.16;;;11.83;30.07
70323;BME280;57735;56.264;43.898;2023-04-06T09:42:54;101508.78;;;11.88;30.20
70323;BME280;57735;56.264;43.898;2023-04-06T09:45:27;101515.84;;;11.99;29.88
70323;BME280;57735;56.264;43.898;2023-04-06T09:48:00;101516.00;;;12.07;30.58
70323;BME280;57735;56.264;43.898;2023-04-06T09:50:39;101512.25;;;12.19;30.07
70323;BME280;57735;56.264;43.898;2023-04-06T09:53:10;101513.38;;;12.26;29.33
70323;BME280;57735;56.264;43.898;2023-04-06T09:55:42;101515.50;;;12.22;28.96
70323;BME280;57735;56.264;43.898;2023-04-06T09:58:13;101505.09;;;12.19;28.73
70323;BME280;57735;56.264;43.898;2023-04-06T10:00:47;101509.88;;;12.26;29.03
70323;BME280;57735;56.264;43.898;2023-04-06T10:03:21;101505.94;;;12.30;28.73
70323;BME280;57735;56.264;43.898;2023-04-06T10:05:56;101506.25;;;12.36;29.08
70323;BME280;57735;56.264;43.898;2023-04-06T10:08:30;101502.16;;;12.32;27.79
70323;BME280;57735;56.264;43.898;2023-04-06T10:11:03;101514.69;;;12.41;28.15
70323;BME280;57735;56.264;43.898;2023-04-06T10:13:34;101510.47;;;12.39;27.43
70323;BME280;57735;56.264;43.898;2023-04-06T10:16:05;101496.66;;;12.34;27.01
70323;BME280;57735;56.264;43.898;2023-04-06T10:18:36;101502.41;;;12.29;27.91
70323;BME280;57735;56.264;43.898;2023-04-06T10:21:11;101499.63;;;12.31;27.84
70323;BME280;57735;56.264;43.898;2023-04-06T10:23:46;101497.78;;;12.31;28.04
70323;BME280;57735;56.264;43.898;2023-04-06T10:26:20;101508.16;;;12.24;27.31
70323;BME280;57735;56.264;43.898;2023-04-06T10:28:50;101512.97;;;12.31;27.85
70323;BME280;57735;56.264;43.898;2023-04-06T10:31:25;101500.78;;;12.47;27.13
70323;BME280;57735;56.264;43.898;2023-04-06T10:33:57;101507.97;;;12.66;27.86
70323;BME280;57735;56.264;43.898;2023-04-06T10:36:28;101500.78;;;12.76;25.85
70323;BME280;57735;56.264;43.898;2023-04-06T10:39:02;101502.75;;;12.74;25.99
70323;BME280;57735;56.264;43.898;2023-04-06T10:41:34;101498.56;;;12.72;25.27
70323;BME280;57735;56.264;43.898;2023-04-06T10:44:07;101511.09;;;12.71;25.54
70323;BME280;57735;56.264;43.898;2023-04-06T10:46:38;101504.59;;;12.54;25.06
70323;BME280;57735;56.264;43.898;2023-04-06T10:49:11;101503.31;;;12.49;25.91
70323;BME280;57735;56.264;43.898;2023-04-06T10:51:45;101514.16;;;12.47;24.70
70323;BME280;57735;56.264;43.898;2023-04-06T10:54:21;101505.69;;;12.42;25.37
70323;BME280;57735;56.264;43.898;2023-04-06T10:56:53;101507.38;;;12.43;25.40
70323;BME280;57735;56.264;43.898;2023-04-06T10:59:28;101498.69;;;12.70;24.63
70323;BME280;57735;56.264;43.898;2023-04-06T11:01:59;101500.78;;;12.57;24.71
70323;BME280;57735;56.264;43.898;2023-04-06T11:04:30;101507.09;;;12.46;24.70
70323;BME280;57735;56.264;43.898;2023-04-06T11:07:01;101510.19;;;12.42;24.80
70323;BME280;57735;56.264;43.898;2023-04-06T11:09:34;101510.47;;;12.39;25.19
70323;BME280;57735;56.264;43.898;2023-04-06T11:12:06;101505.69;;;12.42;25.36
70323;BME280;57735;56.264;43.898;2023-04-06T11:14:37;101496.28;;;12.48;25.11
70323;BME280;57735;56.264;43.898;2023-04-06T11:17:09;101499.53;;;12.51;25.37
70323;BME280;57735;56.264;43.898;2023-04-06T11:19:39;101495.16;;;12.50;25.08
70323;BME280;57735;56.264;43.898;2023-04-06T11:22:10;101498.94;;;12.48;24.63
70323;BME280;57735;56.264;43.898;2023-04-06T11:24:40;101494.44;;;12.39;24.70
70323;BME280;57735;56.264;43.898;2023-04-06T11:27:11;101499.78;;;12.39;24.79
70323;BME280;57735;56.264;43.898;2023-04-06T11:29:45;101498.09;;;12.38;24.20
70323;BME280;57735;56.264;43.898;2023-04-06T11:32:20;101501.03;;;12.35;25.47
70323;BME280;57735;56.264;43.898;2023-04-06T11:34:51;101497.78;;;12.41;24.91
70323;BME280;57735;56.264;43.898;2023-04-06T11:37:25;101493.72;;;12.46;25.58
70323;BME280;57735;56.264;43.898;2023-04-06T11:39:56;101487.13;;;12.50;24.49
70323;BME280;57735;56.264;43.898;2023-04-06T11:42:28;101493.16;;;12.43;24.44
70323;BME280;57735;56.264;43.898;2023-04-06T11:44:59;101494.13;;;12.42;25.07
70323;BME280;57735;56.264;43.898;2023-04-06T11:47:33;101488.38;;;12.46;25.11
70323;BME280;57735;56.264;43.898;2023-04-06T11:50:07;101489.53;;;12.53;25.03
70323;BME280;57735;56.264;43.898;2023-04-06T11:52:39;101481.78;;;12.50;24.75
70323;BME280;57735;56.264;43.898;2023-04-06T11:55:13;101482.19;;;12.46;25.06
70323;BME280;57735;56.264;43.898;2023-04-06T11:57:45;101490.47;;;12.43;25.97
70323;BME280;57735;56.264;43.898;2023-04-06T12:00:16;101482.91;;;12.38;25.98
70323;BME280;57735;56.264;43.898;2023-04-06T12:02:47;101482.19;;;12.36;25.69
70323;BME280;57735;56.264;43.898;2023-04-06T12:05:20;101482.06;;;12.47;25.67
70323;BME280;57735;56.264;43.898;2023-04-06T12:07:51;101488.69;;;12.53;26.06
70323;BME280;57735;56.264;43.898;2023-04-06T12:10:22;101475.44;;;12.51;25.32
70323;BME280;57735;56.264;43.898;2023-04-06T12:12:53;101470.53;;;12.66;26.38
70323;BME280;57735;56.264;43.898;2023-04-06T12:15:23;101470.22;;;12.98;26.65
70323;BME280;57735;56.264;43.898;2023-04-06T12:17:54;101477.56;;;13.15;25.17
70323;BME280;57735;56.264;43.898;2023-04-06T12:20:27;101469.22;;;13.09;24.83
70323;BME280;57735;56.264;43.898;2023-04-06T12:22:58;101474.16;;;12.94;25.40
70323;BME280;57735;56.264;43.898;2023-04-06T12:25:31;101482.63;;;12.80;25.26
70323;BME280;57735;56.264;43.898;2023-04-06T12:28:01;101479.25;;;12.78;25.20
70323;BME280;57735;56.264;43.898;2023-04-06T12:30:35;101479.97;;;12.70;25.48
70323;BME280;57735;56.264;43.898;2023-04-06T12:33:05;101473.88;;;12.58;25.35
70323;BME280;57735;56.264;43.898;2023-04-06T12:35:38;101477.56;;;12.67;26.45
70323;BME280;57735;56.264;43.898;2023-04-06T12:38:09;101482.19;;;12.94;26.04
70323;BME280;57735;56.264;43.898;2023-04-06T12:40:40;101484.63;;;13.16;25.16
70323;BME280;57735;56.264;43.898;2023-04-06T12:43:11;101484.03;;;13.32;25.06
70323;BME280;57735;56.264;43.898;2023-04-06T12:45:43;101472.00;;;13.55;25.27
70323;BME280;57735;56.264;43.898;2023-04-06T12:48:14;101470.94;;;14.03;24.52
70323;BME280;57735;56.264;43.898;2023-04-06T12:50:44;101480.09;;;14.55;24.30
70323;BME280;57735;56.264;43.898;2023-04-06T12:53:15;101481.81;;;15.18;23.47
70323;BME280;57735;56.264;43.898;2023-04-06T12:55:45;101498.66;;;15.72;22.81
70323;BME280;57735;56.264;43.898;2023-04-06T12:58:16;101480.38;;;15.83;22.23
70323;BME280;57735;56.264;43.898;2023-04-06T13:00:47;101488.97;;;15.87;22.10
70323;BME280;57735;56.264;43.898;2023-04-06T13:03:18;101475.81;;;15.76;22.29
70323;BME280;57735;56.264;43.898;2023-04-06T13:05:49;101486.56;;;15.76;22.22